createdAt,value
2019-05-17T00:01:42.619Z,3.22
2019-05-17T00:04:16.486Z,3.67
2019-05-17T00:06:48.558Z,3.98
2019-05-17T00:09:20.809Z,3.58
2019-05-17T00:11:52.968Z,3.50
2019-05-17T00:14:27.107Z,3.65
2019-05-17T00:16:59.060Z,3.70
2019-05-17T00:19:32.119Z,3.25
2019-05-17T00:22:07.391Z,3.58
2019-05-17T00:24:39.060Z,3.67
2019-05-17T00:29:41.928Z,4.05
2019-05-17T00:32:14.229Z,3.58
2019-05-17T00:39:49.529Z,4.10
2019-05-17T00:42:21.533Z,4.50
2019-05-17T00:47:26.411Z,3.83
2019-05-17T00:49:58.198Z,4.35
2019-05-17T00:52:30.449Z,4.55
2019-05-17T00:55:02.483Z,3.77
2019-05-17T01:00:05.680Z,4.10
2019-05-17T01:02:37.624Z,4.42
2019-05-17T01:05:10.078Z,4.37
2019-05-17T01:07:42.120Z,4.05
2019-05-17T01:12:45.416Z,3.58
2019-05-17T01:15:19.288Z,3.92
2019-05-17T01:17:51.558Z,3.92
2019-05-17T01:22:56.534Z,3.12
2019-05-17T01:25:28.373Z,3.22
2019-05-17T01:28:00.399Z,4.10
2019-05-17T01:30:32.739Z,3.67
2019-05-17T01:33:06.580Z,3.72
2019-05-17T01:35:38.598Z,3.98
2019-05-17T01:38:12.268Z,3.85
2019-05-17T01:43:16.669Z,3.47
2019-05-17T01:45:48.788Z,3.75
2019-05-17T01:48:21.628Z,3.62
2019-05-17T01:50:56.790Z,3.42
2019-05-17T01:53:37.020Z,3.27
2019-05-17T01:56:11.700Z,3.85
2019-05-17T01:58:43.980Z,3.47
2019-05-17T02:01:16.971Z,3.52
2019-05-17T02:03:49.249Z,3.80
2019-05-17T02:08:52.379Z,3.70
2019-05-17T02:11:26.756Z,3.67
2019-05-17T02:13:58.369Z,4.25
2019-05-17T02:16:33.829Z,3.98
2019-05-17T02:19:06.886Z,4.33
2019-05-17T02:21:42.598Z,4.03
2019-05-17T02:24:16.967Z,4.37
2019-05-17T02:26:50.841Z,4.55
2019-05-17T02:29:27.779Z,3.67
2019-05-17T02:32:06.851Z,3.75
2019-05-17T02:34:42.966Z,4.12
2019-05-17T02:37:23.533Z,4.30
2019-05-17T02:40:04.577Z,4.43
2019-05-17T02:42:42.997Z,4.05
2019-05-17T02:45:15.899Z,4.47
2019-05-17T02:47:54.080Z,4.60
2019-05-17T02:50:28.580Z,4.08
2019-05-17T02:53:06.617Z,4.22
2019-05-17T02:55:39.584Z,4.40
2019-05-17T02:58:12.872Z,5.03
2019-05-17T03:00:45.745Z,4.75
2019-05-17T03:03:23.657Z,5.20
2019-05-17T03:05:57.040Z,4.97
2019-05-17T03:08:34.210Z,6.22
2019-05-17T03:11:13.959Z,5.62
2019-05-17T03:13:52.559Z,5.78
2019-05-17T03:16:24.974Z,5.47
2019-05-17T03:18:57.931Z,5.30
2019-05-17T03:21:33.749Z,6.28
2019-05-17T03:24:08.471Z,6.75
2019-05-17T03:26:42.960Z,5.78
2019-05-17T03:29:14.771Z,6.87
2019-05-17T03:31:57.582Z,6.35
2019-05-17T03:34:26.375Z,6.78
2019-05-17T03:36:57.052Z,6.55
2019-05-17T03:39:33.278Z,7.08
2019-05-17T03:42:05.360Z,6.62
2019-05-17T03:44:39.070Z,6.67
2019-05-17T03:47:13.129Z,7.05
2019-05-17T03:49:49.098Z,7.20
2019-05-17T03:52:22.387Z,6.75
2019-05-17T03:54:56.736Z,7.20
2019-05-17T03:57:29.219Z,7.03
2019-05-17T04:00:03.804Z,7.50
2019-05-17T04:02:43.793Z,7.12
2019-05-17T04:05:14.311Z,7.45
2019-05-17T04:07:46.908Z,7.22
2019-05-17T04:10:22.831Z,7.10
2019-05-17T04:13:12.707Z,7.90
2019-05-17T04:15:52.717Z,8.70
2019-05-17T04:18:26.100Z,8.83
2019-05-17T04:20:58.552Z,7.97
2019-05-17T04:23:34.014Z,7.37
2019-05-17T04:26:06.149Z,8.28
2019-05-17T04:28:39.011Z,7.67
2019-05-17T04:31:13.343Z,7.85
2019-05-17T04:33:47.348Z,8.65
2019-05-17T04:36:22.459Z,7.30
2019-05-17T04:38:54.974Z,8.05
2019-05-17T04:41:41.551Z,7.47
2019-05-17T04:44:05.688Z,7.97
2019-05-17T04:46:39.218Z,9.03
2019-05-17T04:49:14.989Z,7.83
2019-05-17T04:51:47.730Z,8.63
2019-05-17T04:54:24.418Z,7.58
2019-05-17T04:56:56.642Z,8.25
2019-05-17T04:59:33.358Z,8.50
2019-05-17T05:02:12.923Z,8.78
2019-05-17T05:04:47.527Z,8.50
2019-05-17T05:07:22.691Z,8.08
2019-05-17T05:09:58.490Z,7.20
2019-05-17T05:12:33.636Z,7.80
2019-05-17T05:15:08.400Z,7.00
2019-05-17T05:17:42.585Z,7.40
2019-05-17T05:20:15.592Z,7.10
2019-05-17T05:22:48.375Z,7.25
2019-05-17T05:25:21.653Z,7.42
2019-05-17T05:31:13.355Z,7.75
2019-05-17T05:33:46.365Z,7.50
2019-05-17T05:36:18.875Z,7.22
2019-05-17T05:38:51.645Z,6.78
2019-05-17T05:41:26.299Z,6.10
2019-05-17T05:43:58.827Z,6.50
2019-05-17T05:46:31.797Z,6.37
2019-05-17T05:49:05.274Z,6.72
2019-05-17T05:51:38.160Z,6.62
2019-05-17T05:54:12.317Z,6.33
2019-05-17T05:56:44.910Z,7.22
2019-05-17T05:59:17.541Z,6.65
2019-05-17T06:01:52.426Z,6.47
2019-05-17T06:04:24.438Z,7.03
2019-05-17T06:06:57.230Z,6.62
2019-05-17T06:09:31.752Z,6.95
2019-05-17T06:12:03.976Z,7.03
2019-05-17T06:14:36.585Z,6.45
2019-05-17T06:17:09.105Z,6.30
2019-05-17T06:19:42.862Z,6.42
2019-05-17T06:22:15.854Z,5.95
2019-05-17T06:24:48.495Z,6.50
2019-05-17T06:27:21.584Z,6.45
2019-05-17T06:29:54.575Z,6.50
2019-05-17T06:32:27.377Z,6.42
2019-05-17T06:35:01.886Z,6.87
2019-05-17T06:37:34.157Z,6.85
2019-05-17T06:40:06.840Z,6.25
2019-05-17T06:42:44.126Z,6.40
2019-05-17T06:45:14.516Z,5.97
2019-05-17T06:47:47.255Z,6.83
2019-05-17T06:50:23.466Z,7.05
2019-05-17T06:52:55.303Z,7.30
2019-05-17T06:55:27.909Z,7.15
2019-05-17T06:58:01.720Z,7.12
2019-05-17T07:00:34.445Z,6.67
2019-05-17T07:03:09.408Z,7.10
2019-05-17T07:05:43.346Z,6.70
2019-05-17T07:08:16.035Z,6.78
2019-05-17T07:10:50.239Z,6.95
2019-05-17T07:13:22.917Z,7.12
2019-05-17T07:15:55.685Z,7.33
2019-05-17T07:18:30.048Z,6.42
2019-05-17T07:21:03.440Z,7.00
2019-05-17T07:23:36.195Z,6.37
2019-05-17T07:26:11.821Z,7.22
2019-05-17T07:28:43.436Z,7.05
2019-05-17T07:31:16.296Z,6.95
2019-05-17T07:33:50.458Z,7.65
2019-05-17T07:36:23.196Z,7.10
2019-05-17T07:38:55.863Z,7.92
2019-05-17T07:41:29.834Z,8.33
2019-05-17T07:44:03.550Z,8.95
2019-05-17T07:49:06.571Z,7.45
2019-05-17T07:51:39.663Z,8.23
2019-05-17T07:54:13.906Z,8.00
2019-05-17T07:56:46.335Z,8.30
2019-05-17T07:59:19.998Z,8.23
2019-05-17T08:01:52.745Z,8.30
2019-05-17T08:04:31.735Z,8.10
2019-05-17T08:07:04.676Z,8.13
2019-05-17T08:09:37.216Z,8.20
2019-05-17T08:12:11.026Z,8.45
2019-05-17T08:14:43.686Z,8.43
2019-05-17T08:17:16.285Z,8.73
2019-05-17T08:19:49.779Z,8.78
2019-05-17T08:22:22.586Z,8.40
2019-05-17T08:24:55.015Z,8.05
2019-05-17T08:27:29.658Z,8.28
2019-05-17T08:30:01.706Z,8.63
2019-05-17T08:32:34.495Z,8.60
2019-05-17T08:35:07.298Z,7.58
2019-05-17T08:37:42.471Z,7.28
2019-05-17T08:40:15.484Z,7.72
2019-05-17T08:42:49.882Z,7.03
2019-05-17T08:45:22.466Z,6.90
2019-05-17T08:47:54.841Z,6.70
2019-05-17T08:50:29.365Z,7.67
2019-05-17T08:53:02.168Z,7.22
2019-05-17T08:55:34.706Z,8.23
2019-05-17T08:58:09.997Z,7.53
2019-05-17T09:00:41.596Z,8.00
2019-05-17T09:03:14.286Z,8.45
2019-05-17T09:05:46.877Z,8.48
2019-05-17T09:08:20.580Z,8.63
2019-05-17T09:10:53.536Z,7.92
2019-05-17T09:13:26.142Z,10.48
2019-05-17T09:16:00.269Z,9.75
2019-05-17T09:18:33.335Z,7.17
2019-05-17T09:21:06.177Z,8.30
2019-05-17T09:23:39.644Z,8.78
2019-05-17T09:26:12.549Z,8.05
2019-05-17T09:28:45.530Z,7.85
2019-05-17T09:31:21.676Z,8.03
2019-05-17T09:33:54.556Z,7.97
2019-05-17T09:36:30.104Z,7.50
2019-05-17T09:39:01.853Z,7.00
2019-05-17T09:41:36.475Z,6.70
2019-05-17T09:44:15.674Z,6.50
2019-05-17T09:46:43.505Z,6.65
2019-05-17T09:49:15.946Z,6.78
2019-05-17T09:51:49.684Z,6.22
2019-05-17T09:54:37.240Z,6.05
2019-05-17T09:56:57.596Z,5.62
2019-05-17T09:59:30.335Z,5.22
2019-05-17T10:02:02.825Z,5.72
2019-05-17T10:04:35.463Z,5.35
2019-05-17T10:07:10.201Z,5.22
2019-05-17T10:09:42.176Z,4.92
2019-05-17T10:12:14.774Z,5.22
2019-05-17T10:14:55.195Z,5.60
2019-05-17T10:17:29.477Z,5.25
2019-05-17T10:20:02.316Z,5.33
2019-05-17T10:22:34.887Z,5.35
2019-05-17T10:25:10.420Z,5.67
2019-05-17T10:27:43.047Z,5.30
2019-05-17T10:30:15.547Z,4.35
2019-05-17T10:32:50.607Z,5.33
2019-05-17T10:35:22.418Z,5.20
2019-05-17T10:37:55.697Z,4.20
2019-05-17T10:40:29.881Z,4.35
2019-05-17T10:43:03.780Z,4.20
2019-05-17T10:45:40.095Z,4.47
2019-05-17T10:48:13.816Z,3.95
2019-05-17T10:55:54.005Z,4.62
2019-05-17T10:58:26.606Z,4.53
2019-05-17T11:01:00.809Z,4.70
2019-05-17T11:03:34.666Z,4.33
2019-05-17T11:06:07.518Z,4.62
2019-05-17T11:08:39.926Z,4.70
2019-05-17T11:11:12.575Z,4.35
2019-05-17T11:13:45.125Z,4.65
2019-05-17T11:16:17.715Z,3.95
2019-05-17T11:18:51.005Z,4.40
2019-05-17T11:21:23.737Z,4.53
2019-05-17T11:23:56.213Z,4.50
2019-05-17T11:26:29.015Z,4.35
2019-05-17T11:29:27.771Z,4.72
2019-05-17T11:32:37.297Z,4.83
2019-05-17T11:35:45.395Z,4.78
2019-05-17T11:38:21.555Z,4.70
2019-05-17T11:40:54.300Z,4.75
2019-05-17T11:43:26.776Z,5.00
2019-05-17T11:45:59.370Z,5.37
2019-05-17T11:48:31.845Z,4.87
2019-05-17T11:51:04.525Z,4.95
2019-05-17T11:53:37.035Z,5.10
2019-05-17T11:56:09.616Z,4.83
2019-05-17T11:58:42.095Z,5.30
2019-05-17T12:01:14.957Z,4.97
2019-05-17T12:03:47.556Z,6.45
2019-05-17T12:06:20.406Z,6.25
2019-05-17T12:08:53.166Z,7.37
2019-05-17T12:11:25.765Z,6.78
2019-05-17T12:13:58.716Z,7.22
2019-05-17T12:16:31.256Z,7.03
2019-05-17T12:19:03.860Z,7.37
2019-05-17T12:21:36.476Z,7.10
2019-05-17T12:24:09.641Z,6.40
2019-05-17T12:26:42.296Z,6.67
2019-05-17T12:29:15.185Z,6.87
2019-05-17T12:31:47.619Z,6.28
2019-05-17T12:34:21.455Z,6.00
2019-05-17T12:36:54.056Z,5.97
2019-05-17T12:39:26.479Z,6.10
2019-05-17T12:41:59.245Z,5.42
2019-05-17T12:44:31.877Z,5.97
2019-05-17T12:47:04.826Z,4.78
2019-05-17T12:49:37.528Z,5.25
2019-05-17T12:52:10.397Z,4.05
2019-05-17T12:54:43.136Z,4.03
2019-05-17T12:57:16.886Z,4.00
2019-05-17T12:59:49.575Z,3.72
2019-05-17T13:02:22.256Z,4.20
2019-05-17T13:04:55.117Z,3.83
2019-05-17T13:07:28.045Z,3.92
2019-05-17T13:10:00.656Z,4.00
2019-05-17T13:12:33.454Z,3.72
2019-05-17T13:15:07.329Z,3.62
2019-05-17T13:17:39.848Z,3.40
2019-05-17T13:20:13.216Z,3.25
2019-05-17T13:22:46.289Z,3.05
2019-05-17T13:25:18.962Z,3.05
2019-05-17T13:27:53.147Z,3.50
2019-05-17T13:30:25.925Z,3.27
2019-05-17T13:32:58.947Z,3.12
2019-05-17T13:35:31.602Z,3.00
2019-05-17T13:38:04.297Z,3.30
2019-05-17T13:40:39.641Z,2.87
2019-05-17T13:43:11.272Z,3.05
2019-05-17T13:45:44.717Z,3.17
2019-05-17T13:48:17.796Z,3.67
2019-05-17T13:50:52.909Z,3.55
2019-05-17T13:53:25.943Z,4.33
2019-05-17T13:55:59.487Z,2.98
2019-05-17T13:58:31.984Z,3.50
2019-05-17T14:01:04.656Z,3.50
2019-05-17T14:03:37.312Z,3.22
2019-05-17T14:06:09.866Z,3.70
2019-05-17T14:08:42.592Z,3.17
2019-05-17T14:11:15.158Z,3.58
2019-05-17T14:13:47.658Z,3.35
2019-05-17T14:16:20.359Z,3.40
2019-05-17T14:18:52.819Z,2.95
2019-05-17T14:21:25.455Z,2.95
2019-05-17T14:23:58.565Z,3.15
2019-05-17T14:26:32.047Z,3.20
2019-05-17T14:29:04.576Z,3.45
2019-05-17T14:31:37.268Z,3.45
2019-05-17T14:34:10.075Z,3.42
2019-05-17T14:36:42.964Z,3.20
2019-05-17T14:39:17.097Z,3.22
2019-05-17T14:41:49.607Z,4.00
2019-05-17T14:44:22.606Z,4.20
2019-05-17T14:46:55.137Z,4.12
2019-05-17T14:49:27.756Z,3.98
2019-05-17T14:52:00.317Z,4.22
2019-05-17T14:54:32.796Z,3.60
2019-05-17T14:57:05.429Z,3.52
2019-05-17T14:59:37.966Z,4.22
2019-05-17T15:02:10.508Z,4.37
2019-05-17T15:04:43.121Z,3.72
2019-05-17T15:07:15.605Z,4.10
2019-05-17T15:09:48.021Z,4.00
2019-05-17T15:12:28.528Z,3.80
2019-05-17T15:14:55.126Z,3.45
2019-05-17T15:17:27.795Z,3.80
2019-05-17T15:20:00.455Z,3.83
2019-05-17T15:22:34.842Z,3.80
2019-05-17T15:25:07.560Z,4.00
2019-05-17T15:27:40.177Z,4.62
2019-05-17T15:30:12.949Z,4.05
2019-05-17T15:32:45.564Z,3.83
2019-05-17T15:35:18.899Z,4.20
2019-05-17T15:37:53.096Z,3.85
2019-05-17T15:40:25.881Z,4.50
2019-05-17T15:42:58.366Z,3.92
2019-05-17T15:45:31.603Z,5.00
2019-05-17T15:48:04.226Z,3.58
2019-05-17T15:50:36.847Z,4.10
2019-05-17T15:53:10.352Z,3.52
2019-05-17T15:55:43.745Z,3.58
2019-05-17T15:58:16.346Z,4.05
2019-05-17T16:00:49.485Z,4.00
2019-05-17T16:03:21.955Z,3.98
2019-05-17T16:05:56.277Z,3.77
2019-05-17T16:08:29.814Z,3.70
2019-05-17T16:11:04.545Z,3.98
2019-05-17T16:13:37.035Z,4.10
2019-05-17T16:16:11.036Z,3.77
2019-05-17T16:18:45.147Z,3.47
2019-05-17T16:21:18.275Z,3.62
2019-05-17T16:23:52.380Z,4.25
2019-05-17T16:26:24.944Z,3.62
2019-05-17T16:28:59.003Z,3.70
2019-05-17T16:31:32.943Z,3.65
2019-05-17T16:34:05.606Z,4.78
2019-05-17T16:36:38.056Z,3.83
2019-05-17T16:39:10.588Z,4.17
2019-05-17T16:41:43.066Z,3.95
2019-05-17T16:44:15.638Z,3.55
2019-05-17T16:46:49.625Z,3.60
2019-05-17T16:49:22.378Z,3.75
2019-05-17T16:51:55.211Z,3.92
2019-05-17T16:54:28.123Z,3.95
2019-05-17T16:57:00.661Z,3.90
2019-05-17T16:59:33.379Z,3.90
2019-05-17T17:02:05.979Z,3.55
2019-05-17T17:04:38.689Z,4.22
2019-05-17T17:07:11.106Z,4.10
2019-05-17T17:09:44.170Z,3.27
2019-05-17T17:12:16.651Z,4.03
2019-05-17T17:14:50.255Z,3.77
2019-05-17T17:17:22.768Z,4.03
2019-05-17T17:19:55.414Z,4.15
2019-05-17T17:22:27.966Z,4.22
2019-05-17T17:25:00.620Z,3.85
2019-05-17T17:27:33.036Z,4.20
2019-05-17T17:30:05.985Z,4.90
2019-05-17T17:32:39.585Z,15.45
2019-05-17T17:35:13.255Z,26.80
2019-05-17T17:37:45.977Z,36.68
2019-05-17T17:40:22.611Z,21.62
2019-05-17T17:42:55.086Z,38.05
2019-05-17T17:45:27.807Z,26.00
2019-05-17T17:48:00.365Z,29.07
2019-05-17T17:50:32.969Z,20.65
2019-05-17T17:53:06.676Z,16.00
2019-05-17T17:55:39.849Z,15.60
2019-05-17T17:58:12.246Z,15.10
2019-05-17T18:00:44.937Z,16.95
2019-05-17T18:03:18.364Z,17.52
2019-05-17T18:05:51.045Z,21.40
2019-05-17T18:08:23.756Z,22.62
2019-05-17T18:10:56.366Z,18.20
2019-05-17T18:13:29.146Z,14.23
2019-05-17T18:16:01.806Z,12.53
2019-05-17T18:18:34.355Z,7.85
2019-05-17T18:21:06.934Z,6.67
2019-05-17T18:23:39.435Z,5.90
2019-05-17T18:26:12.577Z,5.85
2019-05-17T18:28:45.040Z,5.50
2019-05-17T18:31:17.600Z,5.45
2019-05-17T18:33:50.276Z,4.90
2019-05-17T18:36:22.925Z,4.33
2019-05-17T18:38:55.958Z,4.78
2019-05-17T18:41:28.507Z,4.85
2019-05-17T18:44:00.948Z,5.05
2019-05-17T18:46:33.614Z,5.28
2019-05-17T18:49:06.085Z,7.65
2019-05-17T18:51:38.501Z,5.40
2019-05-17T18:54:14.266Z,6.65
2019-05-17T18:56:46.806Z,5.20
2019-05-17T18:59:19.196Z,5.17
2019-05-17T19:01:51.729Z,6.15
2019-05-17T19:04:24.299Z,6.25
2019-05-17T19:06:56.872Z,6.87
2019-05-17T19:09:29.667Z,6.62
2019-05-17T19:12:02.276Z,5.97
2019-05-17T19:14:42.478Z,5.92
2019-05-17T19:17:09.986Z,5.53
2019-05-17T19:19:42.506Z,5.97
2019-05-17T19:22:15.286Z,5.37
2019-05-17T19:24:48.675Z,5.28
2019-05-17T19:27:22.986Z,5.40
2019-05-17T19:29:55.888Z,5.30
2019-05-17T19:32:28.626Z,5.55
2019-05-17T19:35:01.066Z,6.03
2019-05-17T19:37:33.597Z,5.60
2019-05-17T19:40:07.036Z,6.60
2019-05-17T19:42:40.906Z,6.60
2019-05-17T19:45:15.358Z,5.87
2019-05-17T19:47:47.969Z,7.50
2019-05-17T19:50:20.806Z,6.50
2019-05-17T19:52:54.528Z,6.40
2019-05-17T19:55:27.096Z,6.80
2019-05-17T19:57:59.976Z,6.17
2019-05-17T20:00:43.958Z,7.42
2019-05-17T20:03:25.356Z,7.67
2019-05-17T20:06:09.634Z,6.72
2019-05-17T20:08:51.580Z,7.05
2019-05-17T20:11:36.682Z,7.08
2019-05-17T20:14:21.596Z,6.47
2019-05-17T20:17:04.769Z,6.90
2019-05-17T20:19:45.506Z,6.05
2019-05-17T20:22:30.636Z,5.78
2019-05-17T20:25:17.316Z,6.10
2019-05-17T20:28:01.026Z,5.87
2019-05-17T20:30:44.386Z,5.78
2019-05-17T20:33:27.289Z,5.58
2019-05-17T20:36:08.345Z,5.28
2019-05-17T20:38:51.430Z,5.75
2019-05-17T20:41:31.974Z,6.20
2019-05-17T20:44:11.309Z,5.65
2019-05-17T20:46:50.233Z,5.67
2019-05-17T20:49:30.856Z,6.12
2019-05-17T20:52:04.566Z,5.92
2019-05-17T20:54:37.125Z,5.53
2019-05-17T20:57:11.395Z,6.03
2019-05-17T20:59:45.676Z,6.08
2019-05-17T21:02:18.215Z,5.40
2019-05-17T21:04:50.979Z,5.67
2019-05-17T21:07:23.500Z,6.10
2019-05-17T21:09:56.210Z,6.28
2019-05-17T21:12:28.646Z,6.05
2019-05-17T21:15:01.176Z,5.72
2019-05-17T21:17:33.807Z,6.28
2019-05-17T21:20:06.586Z,5.72
2019-05-17T21:22:39.557Z,6.50
2019-05-17T21:25:12.880Z,5.47
2019-05-17T21:27:45.329Z,5.55
2019-05-17T21:30:17.806Z,5.65
2019-05-17T21:32:50.499Z,5.30
2019-05-17T21:35:23.315Z,5.70
2019-05-17T21:37:56.065Z,6.47
2019-05-17T21:40:29.536Z,5.55
2019-05-17T21:43:02.081Z,6.08
2019-05-17T21:45:34.667Z,5.85
2019-05-17T21:48:07.525Z,5.87
2019-05-17T21:50:40.056Z,6.03
2019-05-17T21:53:12.714Z,6.33
2019-05-17T21:55:45.185Z,5.85
2019-05-17T21:58:20.310Z,5.53
2019-05-17T22:01:16.010Z,5.47
2019-05-17T22:03:49.735Z,5.75
2019-05-17T22:06:22.418Z,5.05
2019-05-17T22:08:54.845Z,5.83
2019-05-17T22:11:27.425Z,5.92
2019-05-17T22:14:00.024Z,5.55
2019-05-17T22:16:32.499Z,5.90
2019-05-17T22:19:04.966Z,6.42
2019-05-17T22:21:37.548Z,6.15
2019-05-17T22:24:10.049Z,6.25
2019-05-17T22:26:42.706Z,6.30
2019-05-17T22:29:14.927Z,6.75
2019-05-17T22:31:47.479Z,6.90
2019-05-17T22:34:20.035Z,5.65
2019-05-17T22:36:52.775Z,5.60
2019-05-17T22:39:25.589Z,5.60
2019-05-17T22:41:58.085Z,6.17
2019-05-17T22:44:30.618Z,6.33
2019-05-17T22:47:03.106Z,6.15
2019-05-17T22:49:35.496Z,6.28
2019-05-17T22:52:08.066Z,6.15
2019-05-17T22:54:40.708Z,5.42
2019-05-17T22:57:13.260Z,5.42
2019-05-17T22:59:45.825Z,5.90
2019-05-17T23:02:18.305Z,6.08
2019-05-17T23:04:50.697Z,5.78
2019-05-17T23:07:23.256Z,6.28
2019-05-17T23:09:55.765Z,5.87
2019-05-17T23:12:28.187Z,5.33
2019-05-17T23:15:00.590Z,5.58
2019-05-17T23:17:33.428Z,6.08
2019-05-17T23:20:06.676Z,6.90
2019-05-17T23:22:39.228Z,6.05
2019-05-17T23:25:11.766Z,6.15
2019-05-17T23:27:44.218Z,5.60
2019-05-17T23:30:16.720Z,6.83
2019-05-17T23:32:49.733Z,6.40
2019-05-17T23:35:22.235Z,7.08
2019-05-17T23:37:54.615Z,6.42
2019-05-17T23:40:27.061Z,6.55
2019-05-17T23:43:01.053Z,6.62
2019-05-17T23:45:33.396Z,7.72
2019-05-17T23:48:06.085Z,6.58
2019-05-17T23:50:38.496Z,6.53
2019-05-17T23:53:10.945Z,6.75
2019-05-17T23:55:43.445Z,7.20
2019-05-17T23:58:15.985Z,7.50
